JAL3582 RJOK-RJFF
Flight info
| Callsign | JAL3582 |
|---|---|
| Flight time | N/A |
| Altitude | FL260 |
| Route | OMOGO V56 MARCO Y256 STOUT Y20 KIRIN |
| Aircraft | E170/M-S/N |
Departure
| Time | 2026-04-26 12:05 |
|---|---|
| Airport | Kochi Ryoma Airport (RJOK) |
Arrival
| Time | N/A |
|---|---|
| Airport | Fukuoka Airport (RJFF) |
| Time | Latitude | Longitude | Altitude | Speed | Heading |
|---|---|---|---|---|---|
| 2026-04-26 11:46 | 33.54742 | 133.67304 | 20 ft | 0 kts | 39° |
| 2026-04-26 11:55 | 33.54740 | 133.67303 | 20 ft | 2 kts | 39° |
| 2026-04-26 11:55 | 33.54729 | 133.67292 | 20 ft | 2 kts | 39° |
| 2026-04-26 11:55 | 33.54717 | 133.67281 | 20 ft | 2 kts | 39° |
| 2026-04-26 11:55 | 33.54705 | 133.67269 | 20 ft | 2 kts | 39° |
| 2026-04-26 11:56 | 33.54694 | 133.67258 | 20 ft | 2 kts | 39° |
| 2026-04-26 11:56 | 33.54682 | 133.67247 | 20 ft | 2 kts | 39° |
| 2026-04-26 11:56 | 33.54670 | 133.67236 | 20 ft | 2 kts | 39° |
| 2026-04-26 11:56 | 33.54658 | 133.67225 | 20 ft | 2 kts | 39° |
| 2026-04-26 11:57 | 33.54648 | 133.67212 | 20 ft | 2 kts | 69° |
| 2026-04-26 11:57 | 33.54645 | 133.67194 | 20 ft | 2 kts | 101° |
| 2026-04-26 11:57 | 33.54649 | 133.67181 | 20 ft | 0 kts | 127° |
| 2026-04-26 11:57 | 33.54654 | 133.67174 | 20 ft | 1 kts | 131° |
| 2026-04-26 11:58 | 33.54655 | 133.67174 | 20 ft | 0 kts | 131° |
| 2026-04-26 12:00 | 33.54651 | 133.67179 | 20 ft | 2 kts | 130° |
| 2026-04-26 12:00 | 33.54634 | 133.67201 | 19 ft | 5 kts | 134° |
| 2026-04-26 12:00 | 33.54604 | 133.67242 | 19 ft | 8 kts | 130° |
| 2026-04-26 12:00 | 33.54563 | 133.67301 | 18 ft | 10 kts | 132° |
| 2026-04-26 12:01 | 33.54509 | 133.67373 | 17 ft | 12 kts | 130° |
| 2026-04-26 12:01 | 33.54456 | 133.67449 | 16 ft | 12 kts | 130° |
| 2026-04-26 12:01 | 33.54401 | 133.67526 | 16 ft | 12 kts | 130° |
| 2026-04-26 12:01 | 33.54343 | 133.67606 | 16 ft | 13 kts | 131° |
| 2026-04-26 12:02 | 33.54282 | 133.67660 | 15 ft | 9 kts | 180° |
| 2026-04-26 12:02 | 33.54252 | 133.67646 | 15 ft | 7 kts | 219° |
| 2026-04-26 12:02 | 33.54237 | 133.67630 | 15 ft | 0 kts | 222° |
| 2026-04-26 12:03 | 33.54236 | 133.67628 | 15 ft | 1 kts | 222° |
| 2026-04-26 12:03 | 33.54219 | 133.67611 | 15 ft | 5 kts | 220° |
| 2026-04-26 12:03 | 33.54193 | 133.67584 | 16 ft | 5 kts | 229° |
| 2026-04-26 12:03 | 33.54189 | 133.67542 | 17 ft | 5 kts | 287° |
| 2026-04-26 12:04 | 33.54201 | 133.67501 | 17 ft | 5 kts | 303° |
| 2026-04-26 12:04 | 33.54208 | 133.67491 | 17 ft | 0 kts | 307° |
| 2026-04-26 12:04 | 33.54214 | 133.67481 | 17 ft | 8 kts | 309° |
| 2026-04-26 12:04 | 33.54450 | 133.67152 | 18 ft | 94 kts | 310° |
| 2026-04-26 12:05 | 33.55030 | 133.66343 | 49 ft | 158 kts | 314° |
| 2026-04-26 12:05 | 33.55777 | 133.65319 | 687 ft | 166 kts | 314° |
| 2026-04-26 12:05 | 33.56611 | 133.64425 | 1504 ft | 163 kts | 343° |
| 2026-04-26 12:05 | 33.57667 | 133.64502 | 2196 ft | 163 kts | 32° |
| 2026-04-26 12:06 | 33.58338 | 133.65645 | 2668 ft | 184 kts | 69° |
| 2026-04-26 12:06 | 33.58678 | 133.67213 | 3153 ft | 207 kts | 72° |
| 2026-04-26 12:06 | 33.59102 | 133.68917 | 3757 ft | 224 kts | 71° |
| 2026-04-26 12:06 | 33.59600 | 133.70751 | 4376 ft | 242 kts | 71° |
| 2026-04-26 12:07 | 33.60011 | 133.72769 | 5062 ft | 258 kts | 89° |
| 2026-04-26 12:07 | 33.59612 | 133.74836 | 6028 ft | 263 kts | 116° |
| 2026-04-26 12:07 | 33.58520 | 133.76563 | 7073 ft | 265 kts | 130° |
| 2026-04-26 12:07 | 33.57326 | 133.78206 | 8097 ft | 266 kts | 132° |
| 2026-04-26 12:08 | 33.56118 | 133.79853 | 9070 ft | 268 kts | 136° |
| 2026-04-26 12:08 | 33.54617 | 133.81122 | 9996 ft | 269 kts | 158° |
| 2026-04-26 12:08 | 33.52819 | 133.81656 | 10853 ft | 274 kts | 176° |
| 2026-04-26 12:08 | 33.50868 | 133.81354 | 11391 ft | 294 kts | 198° |
| 2026-04-26 12:09 | 33.49044 | 133.80096 | 11873 ft | 317 kts | 218° |
| 2026-04-26 12:09 | 33.47385 | 133.78250 | 12330 ft | 336 kts | 220° |
| 2026-04-26 12:09 | 33.45626 | 133.76315 | 12730 ft | 353 kts | 219° |
| 2026-04-26 12:09 | 33.43808 | 133.74316 | 13392 ft | 360 kts | 220° |
| 2026-04-26 12:10 | 33.41988 | 133.72273 | 14191 ft | 363 kts | 224° |
| 2026-04-26 12:10 | 33.40576 | 133.69762 | 14893 ft | 373 kts | 244° |
| 2026-04-26 12:10 | 33.39927 | 133.66730 | 15637 ft | 383 kts | 262° |
| 2026-04-26 12:10 | 33.40132 | 133.63542 | 16332 ft | 395 kts | 281° |
| 2026-04-26 12:11 | 33.41250 | 133.60517 | 16964 ft | 408 kts | 301° |
| 2026-04-26 12:11 | 33.43120 | 133.57947 | 17677 ft | 414 kts | 310° |
| 2026-04-26 12:11 | 33.45090 | 133.55458 | 18364 ft | 415 kts | 310° |
| 2026-04-26 12:11 | 33.47067 | 133.52941 | 18951 ft | 419 kts | 310° |
| 2026-04-26 12:12 | 33.49055 | 133.50384 | 19481 ft | 424 kts | 309° |
| 2026-04-26 12:12 | 33.51076 | 133.47774 | 20009 ft | 428 kts | 309° |
| 2026-04-26 12:12 | 33.53096 | 133.45157 | 20571 ft | 432 kts | 309° |
| 2026-04-26 12:12 | 33.54448 | 133.43408 | 20920 ft | 434 kts | 309° |
| 2026-04-26 12:13 | 33.57187 | 133.39856 | 21605 ft | 439 kts | 310° |
| 2026-04-26 12:13 | 33.59262 | 133.37163 | 22076 ft | 443 kts | 309° |
| 2026-04-26 12:13 | 33.61358 | 133.34448 | 22550 ft | 447 kts | 309° |
| 2026-04-26 12:13 | 33.63451 | 133.31700 | 23054 ft | 449 kts | 307° |
| 2026-04-26 12:14 | 33.65305 | 133.28684 | 23509 ft | 448 kts | 298° |